Time;durP1;ratioP1;P1;durP2;ratioP2;P2;SDS_P1;SDS_P2;PMS_P1;PMS_P2;Temp;Humidity;BMP_temperature;BMP_pressure;BME280_temperature;BME280_humidity;BME280_pressure;Samples;Min_cycle;Max_cycle;Signal;HPM_P1;HPM_P2
2020/12/08 00:00:02;;;;;;;15.23;8.18;;;;;;;-0.44;92.08;95702.41;4990534;28;20126;-77
2020/12/08 00:02:28;;;;;;;17.08;9.18;;;;;;;-0.45;91.87;95690.59;5013140;28;20047;-77
2020/12/08 00:04:54;;;;;;;16.50;7.95;;;;;;;-0.47;92.46;95695.16;4995383;28;20708;-77
2020/12/08 00:07:19;;;;;;;16.85;8.93;;;;;;;-0.57;91.62;95693.88;5011014;28;20042;-77
2020/12/08 00:09:45;;;;;;;15.18;9.00;;;;;;;-0.60;92.04;95688.38;5029753;28;20047;-77
2020/12/08 00:12:12;;;;;;;17.35;9.45;;;;;;;-0.59;92.38;95693.28;5013018;28;20488;-77
2020/12/08 00:14:38;;;;;;;16.63;8.45;;;;;;;-0.59;92.03;95693.28;5028818;28;20515;-77
2020/12/08 00:17:04;;;;;;;17.58;9.30;;;;;;;-0.62;92.47;95682.69;5024427;28;20034;-77
2020/12/08 00:19:30;;;;;;;18.25;10.15;;;;;;;-0.52;92.13;95684.78;5026208;28;20040;-77
2020/12/08 00:21:56;;;;;;;17.73;9.43;;;;;;;-0.59;92.92;95685.59;5027945;28;20037;-77
2020/12/08 00:24:22;;;;;;;19.20;9.15;;;;;;;-0.55;92.89;95685.19;5027925;28;20041;-77
2020/12/08 00:26:48;;;;;;;19.23;10.00;;;;;;;-0.49;92.52;95692.81;5037874;28;20037;-77
2020/12/08 00:29:14;;;;;;;18.83;10.30;;;;;;;-0.58;92.62;95678.75;5022574;28;20033;-77
2020/12/08 00:31:40;;;;;;;23.10;11.02;;;;;;;-0.62;92.97;95680.13;5027640;28;20021;-77
2020/12/08 00:34:06;;;;;;;19.92;10.38;;;;;;;-0.57;92.69;95683.66;5000789;28;20122;-77
2020/12/08 00:36:32;;;;;;;18.02;9.60;;;;;;;-0.60;92.28;95673.84;5032433;28;20494;-77
2020/12/08 00:38:58;;;;;;;21.48;10.88;;;;;;;-0.56;92.63;95684.41;5031200;28;20045;-77
2020/12/08 00:41:24;;;;;;;18.55;10.43;;;;;;;-0.49;92.92;95681.81;5016115;28;20148;-77
2020/12/08 00:43:50;;;;;;;20.98;10.57;;;;;;;-0.54;93.27;95681.66;5012653;28;20068;-77
2020/12/08 00:46:17;;;;;;;19.85;10.48;;;;;;;-0.50;92.79;95672.56;5044192;28;20082;-77
2020/12/08 00:48:45;;;;;;;22.35;10.73;;;;;;;-0.49;92.83;95674.91;5031483;28;20064;-77
2020/12/08 00:51:10;;;;;;;23.42;10.93;;;;;;;-0.51;92.74;95671.00;5030589;28;20032;-77
2020/12/08 00:53:36;;;;;;;29.13;12.40;;;;;;;-0.48;93.56;95671.38;5022052;28;20075;-77
2020/12/08 00:56:07;;;;;;;23.75;10.95;;;;;;;-0.50;92.99;95673.34;5036659;28;20096;-77
2020/12/08 00:58:34;;;;;;;20.80;10.20;;;;;;;-0.49;92.83;95679.25;5017754;28;20043;-77
2020/12/08 01:00:59;;;;;;;21.27;10.30;;;;;;;-0.46;92.51;95678.84;5046649;28;20037;-77
2020/12/08 01:03:25;;;;;;;21.35;10.85;;;;;;;-0.48;92.81;95671.38;5047177;28;21076;-77
2020/12/08 01:05:51;;;;;;;19.17;10.50;;;;;;;-0.47;93.49;95669.59;5031613;28;20036;-77
2020/12/08 01:08:17;;;;;;;19.00;9.90;;;;;;;-0.43;92.62;95663.84;5026332;28;20096;-77
2020/12/08 01:10:43;;;;;;;16.50;8.80;;;;;;;-0.43;92.58;95665.59;5028861;28;20057;-77
2020/12/08 01:13:09;;;;;;;17.20;8.80;;;;;;;-0.23;91.32;95668.75;5029281;28;20057;-77
2020/12/08 01:15:35;;;;;;;16.88;8.82;;;;;;;-0.33;91.45;95668.44;5013942;28;20022;-77
2020/12/08 01:18:02;;;;;;;15.43;8.77;;;;;;;-0.45;92.00;95662.47;5014319;28;20807;-77
2020/12/08 01:20:28;;;;;;;16.70;8.30;;;;;;;-0.44;92.03;95664.06;5014366;28;20063;-77
2020/12/08 01:22:54;;;;;;;18.15;9.77;;;;;;;-0.50;92.38;95675.13;4985574;28;20032;-77
2020/12/08 01:25:20;;;;;;;17.77;8.98;;;;;;;-0.57;92.38;95675.97;5032698;28;20086;-77
2020/12/08 01:27:47;;;;;;;15.73;8.88;;;;;;;-0.58;92.41;95679.50;5053105;28;20116;-77
2020/12/08 01:30:13;;;;;;;17.08;9.48;;;;;;;-0.58;92.17;95671.06;5034645;28;20025;-77
2020/12/08 01:32:41;;;;;;;15.68;9.02;;;;;;;-0.63;91.79;95666.59;5052846;28;20059;-77
2020/12/08 01:35:07;;;;;;;17.75;9.10;;;;;;;-0.75;92.73;95665.72;5031380;28;20057;-77
2020/12/08 01:37:33;;;;;;;17.75;9.55;;;;;;;-0.75;92.15;95668.25;5031666;28;20460;-77
2020/12/08 01:39:59;;;;;;;19.70;10.82;;;;;;;-0.81;92.52;95671.66;5010507;28;20669;-77
2020/12/08 01:42:27;;;;;;;15.63;8.30;;;;;;;-0.83;92.68;95687.19;5028104;28;20032;-77
2020/12/08 01:44:52;;;;;;;14.90;7.70;;;;;;;-0.82;92.86;95691.31;5012157;28;20485;-77
2020/12/08 01:47:18;;;;;;;16.25;8.32;;;;;;;-0.75;91.58;95688.72;5028628;28;20037;-77
2020/12/08 01:49:48;;;;;;;16.23;7.85;;;;;;;-0.81;92.06;95685.19;5030865;28;20060;-77
2020/12/08 01:52:15;;;;;;;16.45;8.35;;;;;;;-0.81;91.97;95692.09;5031076;28;20120;-77
2020/12/08 01:54:46;;;;;;;17.33;9.73;;;;;;;-0.86;92.56;95676.59;5030697;28;20029;-77
2020/12/08 01:57:12;;;;;;;16.48;9.05;;;;;;;-0.93;92.39;95673.31;5011713;28;20037;-77
2020/12/08 01:59:38;;;;;;;17.13;8.82;;;;;;;-0.96;92.98;95674.50;5004121;28;20064;-77
2020/12/08 02:02:05;;;;;;;18.50;9.18;;;;;;;-1.00;92.78;95673.38;5046231;23;20393;-80
2020/12/08 02:04:31;;;;;;;15.43;9.15;;;;;;;-0.99;92.75;95669.84;5033356;28;20114;-80
2020/12/08 02:06:57;;;;;;;15.32;8.13;;;;;;;-1.02;93.01;95670.25;5034421;28;20029;-80
2020/12/08 02:09:23;;;;;;;16.55;8.48;;;;;;;-1.02;93.37;95665.91;5016078;28;20040;-80
2020/12/08 02:11:49;;;;;;;19.15;9.10;;;;;;;-1.03;93.29;95673.78;5034607;28;20333;-80
2020/12/08 02:14:15;;;;;;;15.60;8.40;;;;;;;-1.06;93.26;95669.88;5052639;28;20348;-80
2020/12/08 02:16:41;;;;;;;18.05;9.20;;;;;;;-1.06;93.21;95667.31;5032911;28;20041;-80
2020/12/08 02:19:07;;;;;;;17.08;9.20;;;;;;;-1.02;93.48;95657.47;5016698;28;20078;-80
2020/12/08 02:21:34;;;;;;;20.08;9.52;;;;;;;-1.02;93.15;95660.03;5036923;28;20033;-79
2020/12/08 02:24:01;;;;;;;15.75;9.05;;;;;;;-1.02;93.21;95654.91;5051937;28;20498;-80
2020/12/08 02:26:27;;;;;;;16.30;8.25;;;;;;;-0.97;92.93;95658.41;5052939;28;20053;-80
2020/12/08 02:28:56;;;;;;;15.85;7.43;;;;;;;-0.84;92.91;95666.94;5034242;28;20025;-80
2020/12/08 02:31:22;;;;;;;13.55;7.70;;;;;;;-0.78;91.80;95668.69;5033216;28;20154;-80
2020/12/08 02:33:48;;;;;;;13.10;6.93;;;;;;;-0.85;92.11;95660.28;5033314;28;20071;-80
2020/12/08 02:36:14;;;;;;;13.85;7.50;;;;;;;-0.83;92.37;95663.41;5033219;28;20025;-80
2020/12/08 02:38:40;;;;;;;15.07;8.35;;;;;;;-0.87;92.74;95659.72;5024011;28;20025;-80
2020/12/08 02:41:06;;;;;;;13.40;7.63;;;;;;;-0.78;91.52;95649.00;5032834;28;20025;-80
2020/12/08 02:43:32;;;;;;;13.13;7.05;;;;;;;-0.77;91.71;95647.25;5017005;28;20029;-80
2020/12/08 02:45:58;;;;;;;15.90;8.40;;;;;;;-0.84;92.38;95643.94;5034655;28;20167;-80
2020/12/08 02:48:25;;;;;;;17.17;8.65;;;;;;;-0.81;91.98;95644.31;5052792;28;20033;-80
2020/12/08 02:50:51;;;;;;;16.60;8.27;;;;;;;-0.82;92.02;95642.75;5018661;28;20037;-80
2020/12/08 02:53:19;;;;;;;14.48;7.18;;;;;;;-0.84;92.31;95654.19;5033958;28;20033;-80
2020/12/08 02:55:48;;;;;;;15.43;8.30;;;;;;;-0.86;92.18;95654.38;5035117;28;20056;-80
2020/12/08 02:58:15;;;;;;;14.70;8.10;;;;;;;-0.85;92.62;95650.06;5034875;28;20084;-80
2020/12/08 03:00:41;;;;;;;15.48;8.50;;;;;;;-0.89;92.21;95644.59;5034461;28;20467;-80
2020/12/08 03:03:07;;;;;;;16.25;9.38;;;;;;;-0.88;92.57;95643.59;5029958;28;20083;-80
2020/12/08 03:05:33;;;;;;;18.73;8.95;;;;;;;-0.87;92.34;95637.50;5071135;28;20036;-80
2020/12/08 03:07:59;;;;;;;20.10;9.90;;;;;;;-0.87;92.85;95636.72;5036794;28;20086;-79
2020/12/08 03:10:25;;;;;;;25.00;12.25;;;;;;;-0.92;92.60;95636.56;5054178;28;20036;-80
2020/12/08 03:12:51;;;;;;;20.35;10.82;;;;;;;-0.93;92.75;95635.00;5037049;28;20206;-80
2020/12/08 03:15:17;;;;;;;25.65;11.50;;;;;;;-0.90;93.02;95637.91;5053211;28;20035;-80
2020/12/08 03:17:44;;;;;;;18.50;9.70;;;;;;;-0.91;93.14;95643.22;5040962;28;20240;-79
2020/12/08 03:20:10;;;;;;;21.80;10.75;;;;;;;-0.93;93.26;95648.53;5034152;28;20109;-80
2020/12/08 03:22:36;;;;;;;20.65;9.48;;;;;;;-0.96;93.38;95638.75;5034443;28;20391;-80
2020/12/08 03:25:03;;;;;;;22.05;11.23;;;;;;;-0.99;93.35;95641.75;5048489;28;20196;-80
2020/12/08 03:27:29;;;;;;;22.00;10.88;;;;;;;-0.97;93.73;95647.41;5054503;28;20116;-80
2020/12/08 03:29:55;;;;;;;18.40;9.57;;;;;;;-0.91;93.70;95659.34;5072312;28;20036;-80
2020/12/08 03:32:21;;;;;;;18.52;9.70;;;;;;;-0.82;92.80;95665.00;5034372;28;20044;-80
2020/12/08 03:34:47;;;;;;;17.20;8.85;;;;;;;-0.87;93.31;95663.06;5034689;28;20037;-80
2020/12/08 03:37:13;;;;;;;16.15;9.10;;;;;;;-0.84;93.07;95664.41;5017817;28;20027;-80
2020/12/08 03:39:39;;;;;;;16.85;8.57;;;;;;;-0.82;93.05;95665.75;5050360;28;20032;-80
2020/12/08 03:42:05;;;;;;;19.55;9.82;;;;;;;-0.70;92.22;95668.41;5053593;28;20039;-80
2020/12/08 03:44:31;;;;;;;18.02;9.25;;;;;;;-0.78;92.97;95666.91;5036907;28;20483;-80
2020/12/08 03:47:03;;;;;;;20.00;9.95;;;;;;;-0.73;92.84;95671.38;5053207;28;20042;-80
2020/12/08 03:49:28;;;;;;;15.13;7.93;;;;;;;-0.79;92.68;95667.09;5036982;28;20055;-80
2020/12/08 03:51:56;;;;;;;18.80;9.80;;;;;;;-0.77;93.36;95678.69;5071344;28;20052;-79
2020/12/08 03:54:22;;;;;;;16.67;9.05;;;;;;;-0.78;93.09;95666.13;5052947;28;20351;-80
2020/12/08 03:56:49;;;;;;;18.42;9.90;;;;;;;-0.75;92.78;95670.81;5053218;28;20033;-80
2020/12/08 03:59:18;;;;;;;19.33;10.15;;;;;;;-0.74;93.58;95672.38;5053278;28;20028;-80
2020/12/08 04:01:48;;;;;;;17.20;8.80;;;;;;;-0.74;93.30;95667.25;5052520;28;20044;-80
2020/12/08 04:04:14;;;;;;;20.65;10.95;;;;;;;-0.75;93.20;95670.81;5053041;28;20487;-80
2020/12/08 04:06:40;;;;;;;22.90;11.27;;;;;;;-0.79;93.57;95664.56;5052369;28;20040;-80
2020/12/08 04:09:06;;;;;;;24.63;11.65;;;;;;;-0.78;93.43;95661.78;5053133;28;20036;-80
2020/12/08 04:11:33;;;;;;;19.27;9.88;;;;;;;-0.76;93.72;95664.13;5053697;28;20085;-80
2020/12/08 04:14:00;;;;;;;20.73;10.70;;;;;;;-0.82;93.36;95659.88;5053135;28;20078;-80
2020/12/08 04:16:33;;;;;;;23.25;11.80;;;;;;;-0.85;93.17;95660.28;5050131;28;20069;-80
2020/12/08 04:19:01;;;;;;;23.77;12.18;;;;;;;-0.90;93.57;95660.13;5033102;28;20036;-80
2020/12/08 04:21:29;;;;;;;24.67;12.25;;;;;;;-0.98;93.97;95651.75;5013885;28;20029;-80
2020/12/08 04:24:00;;;;;;;28.27;12.77;;;;;;;-0.93;94.28;95656.22;5049947;28;20028;-80
2020/12/08 04:26:30;;;;;;;23.85;11.23;;;;;;;-0.99;93.79;95652.72;5053928;28;20119;-80
2020/12/08 04:28:56;;;;;;;23.20;12.50;;;;;;;-0.90;94.60;95662.69;5070021;28;20032;-80
2020/12/08 04:31:22;;;;;;;23.70;12.15;;;;;;;-0.93;94.44;95660.56;5052026;28;20021;-80
2020/12/08 04:33:48;;;;;;;27.75;12.32;;;;;;;-0.99;94.23;95651.97;5070927;28;20468;-80
2020/12/08 04:36:15;;;;;;;26.00;12.48;;;;;;;-0.93;93.87;95658.00;5052843;28;20055;-79
2020/12/08 04:38:42;;;;;;;24.85;12.65;;;;;;;-0.99;93.79;95651.97;5041326;28;20036;-80
2020/12/08 04:41:09;;;;;;;26.48;13.88;;;;;;;-0.98;94.34;95646.63;5012237;28;20029;-80
2020/12/08 04:43:39;;;;;;;25.92;12.93;;;;;;;-0.94;94.58;95644.44;5049146;28;20032;-80
2020/12/08 04:46:07;;;;;;;23.05;11.82;;;;;;;-0.93;93.98;95637.56;5032601;28;20055;-80
2020/12/08 04:48:36;;;;;;;24.52;10.35;;;;;;;-0.97;94.00;95648.19;5051142;28;20051;-80
2020/12/08 04:51:03;;;;;;;28.65;12.32;;;;;;;-0.96;94.53;95647.22;5032844;28;20108;-80
2020/12/08 04:53:29;;;;;;;29.08;11.77;;;;;;;-0.98;94.31;95651.75;5063497;28;20063;-79
2020/12/08 04:55:55;;;;;;;25.90;12.27;;;;;;;-0.97;94.35;95648.19;5035858;28;20482;-80
2020/12/08 04:58:21;;;;;;;29.27;12.75;;;;;;;-0.95;94.24;95655.66;5036131;28;20025;-79
2020/12/08 05:00:47;;;;;;;25.20;11.80;;;;;;;-0.96;94.46;95656.63;5051044;28;20716;-80
2020/12/08 05:03:12;;;;;;;26.35;12.50;;;;;;;-0.90;94.31;95668.56;5019395;28;20055;-80
2020/12/08 05:05:42;;;;;;;29.38;12.30;;;;;;;-0.86;94.06;95677.38;5052738;28;20033;-80
2020/12/08 05:08:13;;;;;;;25.98;11.80;;;;;;;-0.87;94.58;95675.06;5051918;28;20029;-80
2020/12/08 05:10:40;;;;;;;24.95;11.85;;;;;;;-0.85;94.14;95676.41;5052571;28;20690;-80
2020/12/08 05:13:18;;;;;;;23.30;11.95;;;;;;;-0.81;94.42;95682.66;5052226;28;20029;-80
2020/12/08 05:16:06;;;;;;;23.75;11.70;;;;;;;-0.80;94.35;95675.78;5052108;28;20386;-80
2020/12/08 05:18:33;;;;;;;28.05;12.63;;;;;;;-0.81;94.59;95666.53;5032863;28;20577;-80
2020/12/08 05:21:09;;;;;;;28.40;12.73;;;;;;;-0.74;94.61;95672.38;5033268;28;20033;-80
2020/12/08 05:23:42;;;;;;;30.30;15.57;;;;;;;-0.76;94.58;95670.03;5032108;28;20056;-80
2020/12/08 05:26:09;;;;;;;27.45;13.52;;;;;;;-0.80;94.12;95663.78;5032342;28;20475;-80
2020/12/08 05:28:39;;;;;;;25.02;12.38;;;;;;;-0.77;94.88;95668.47;5032806;28;20734;-80
2020/12/08 05:31:06;;;;;;;27.40;12.07;;;;;;;-0.80;94.25;95671.44;5049330;28;20366;-80
2020/12/08 05:33:32;;;;;;;28.30;12.52;;;;;;;-0.78;94.13;95672.00;5051876;28;20025;-80
2020/12/08 05:35:59;;;;;;;26.17;13.45;;;;;;;-0.79;94.31;95678.13;5069005;28;20044;-80
2020/12/08 05:38:35;;;;;;;26.42;12.25;;;;;;;-0.77;94.64;95672.81;5051317;28;20032;-80
2020/12/08 05:41:05;;;;;;;31.55;13.25;;;;;;;-0.76;94.34;95677.69;5051944;28;20125;-80
2020/12/08 05:43:42;;;;;;;27.33;12.60;;;;;;;-0.77;94.64;95681.25;5052089;28;20360;-80
2020/12/08 05:46:09;;;;;;;28.23;12.57;;;;;;;-0.74;93.91;95677.47;5051566;28;20452;-80
2020/12/08 05:48:37;;;;;;;28.25;13.27;;;;;;;-0.73;nan;95676.50;5052410;28;20479;-80
2020/12/08 05:51:06;;;;;;;27.75;13.75;;;;;;;-0.72;94.49;95682.38;5068842;28;20040;-80
2020/12/08 05:53:33;;;;;;;30.42;13.13;;;;;;;-0.72;93.87;95677.28;5051442;28;20501;-80
2020/12/08 05:56:06;;;;;;;30.95;13.13;;;;;;;-0.71;94.27;95679.63;5036194;28;20024;-80
2020/12/08 05:58:33;;;;;;;29.55;12.95;;;;;;;-0.72;93.83;95675.53;5051844;28;20036;-80
2020/12/08 06:01:06;;;;;;;27.15;12.43;;;;;;;-0.68;94.05;95678.44;5049347;28;20083;-80
2020/12/08 06:03:32;;;;;;;32.50;14.05;;;;;;;-0.71;94.08;95679.63;5033495;28;20091;-80
2020/12/08 06:06:10;;;;;;;28.45;12.55;;;;;;;-0.74;93.73;95672.38;5050960;28;20827;-80
2020/12/08 06:08:46;;;;;;;33.38;14.82;;;;;;;-0.70;94.22;95681.19;5034752;28;20044;-80
2020/12/08 06:11:13;;;;;;;33.97;13.77;;;;;;;-0.70;94.15;95673.53;5030916;28;20083;-80
2020/12/08 06:13:46;;;;;;;33.03;14.30;;;;;;;-0.70;94.43;95668.41;5033404;28;20108;-79
2020/12/08 06:16:18;;;;;;;33.42;15.07;;;;;;;-0.68;94.31;95666.44;5036598;28;20029;-79
2020/12/08 06:18:44;;;;;;;32.03;15.45;;;;;;;-0.70;94.15;95663.31;5018077;28;20044;-79
2020/12/08 06:21:18;;;;;;;38.97;17.33;;;;;;;-0.68;94.42;95673.31;5034473;28;20352;-80
2020/12/08 06:23:45;;;;;;;36.78;15.60;;;;;;;-0.67;94.32;95669.75;5053113;28;20029;-79
2020/12/08 06:26:11;;;;;;;30.98;15.73;;;;;;;-0.73;94.00;95661.16;5037801;28;20024;-79
2020/12/08 06:28:36;;;;;;;31.92;14.70;;;;;;;-0.73;93.60;95668.06;5037969;28;20534;-79
2020/12/08 06:31:04;;;;;;;29.63;15.55;;;;;;;-0.74;93.95;95664.69;5065416;28;20037;-79
2020/12/08 06:33:31;;;;;;;30.15;14.05;;;;;;;-0.70;94.32;95680.41;5033992;28;20029;-80
2020/12/08 06:36:00;;;;;;;30.88;13.45;;;;;;;-0.68;93.84;95684.31;5033828;28;20545;-80
2020/12/08 06:38:28;;;;;;;31.60;15.20;;;;;;;-0.68;93.79;95678.44;5065585;28;20518;-80
2020/12/08 06:40:54;;;;;;;31.73;13.75;;;;;;;-0.66;94.42;95684.88;5054499;28;20039;-80
2020/12/08 06:43:21;;;;;;;28.17;12.80;;;;;;;-0.64;93.84;95698.22;5053556;28;20029;-80
2020/12/08 06:45:47;;;;;;;31.15;13.23;;;;;;;-0.66;93.88;95705.34;5044639;28;20028;-80
2020/12/08 06:48:21;;;;;;;25.05;12.90;;;;;;;-0.63;94.17;95699.81;5055114;28;20049;-80
2020/12/08 06:50:49;;;;;;;27.60;12.23;;;;;;;-0.62;93.65;95701.38;5038106;28;20044;-80
2020/12/08 06:53:15;;;;;;;28.45;13.48;;;;;;;-0.55;93.91;95710.75;5053543;28;20086;-80
2020/12/08 06:55:44;;;;;;;26.02;12.95;;;;;;;-0.61;93.37;95691.94;5072511;28;20058;-80
2020/12/08 06:58:10;;;;;;;25.83;12.70;;;;;;;-0.61;93.32;95697.06;5054068;28;20024;-80
2020/12/08 07:00:36;;;;;;;29.30;12.90;;;;;;;-0.57;93.14;95691.31;5053698;28;20035;-80
2020/12/08 07:03:02;;;;;;;25.35;12.55;;;;;;;-0.52;93.53;95702.66;5053343;28;20071;-80
2020/12/08 07:05:31;;;;;;;26.83;13.43;;;;;;;-0.55;93.56;95696.19;5054201;28;20788;-80
2020/12/08 07:08:01;;;;;;;27.17;14.05;;;;;;;-0.52;93.16;95705.22;5053338;28;20058;-80
2020/12/08 07:10:27;;;;;;;27.48;13.38;;;;;;;-0.53;93.25;95701.91;5054162;28;20036;-80
2020/12/08 07:12:54;;;;;;;29.42;13.52;;;;;;;-0.53;93.36;95711.31;5053829;28;20036;-80
2020/12/08 07:15:22;;;;;;;29.55;14.95;;;;;;;-0.53;94.00;95706.22;5053741;28;20028;-80
2020/12/08 07:17:58;;;;;;;28.23;13.95;;;;;;;-0.54;93.26;95702.88;5023749;28;20052;-80
2020/12/08 07:20:25;;;;;;;29.80;14.18;;;;;;;-0.57;93.75;95701.53;5033993;28;20488;-80
2020/12/08 07:22:51;;;;;;;29.10;13.27;;;;;;;-0.58;93.24;95696.63;5037793;28;20395;-80
2020/12/08 07:25:18;;;;;;;32.88;15.18;;;;;;;-0.57;93.70;95705.84;5053819;28;20117;-80
2020/12/08 07:27:50;;;;;;;34.80;15.27;;;;;;;-0.59;93.79;95703.50;5053824;28;20039;-80
2020/12/08 07:30:23;;;;;;;34.58;15.93;;;;;;;-0.59;93.91;95708.63;5053213;28;20024;-80
2020/12/08 07:32:53;;;;;;;41.65;18.88;;;;;;;-0.58;93.79;95712.75;5053717;28;20036;-80
2020/12/08 07:35:28;;;;;;;36.97;18.83;;;;;;;-0.55;93.59;95720.97;5049965;28;20150;-80
2020/12/08 07:37:58;;;;;;;33.53;16.52;;;;;;;-0.55;93.52;95715.88;5030988;28;20016;-80
2020/12/08 07:40:36;;;;;;;32.70;15.27;;;;;;;-0.53;93.15;95719.00;5036530;28;20425;-80
2020/12/08 07:43:03;;;;;;;29.92;14.40;;;;;;;-0.49;93.34;95722.72;5071135;28;20378;-80
2020/12/08 07:45:30;;;;;;;30.60;15.63;;;;;;;-0.50;93.55;95729.56;5052670;28;20035;-80
2020/12/08 07:48:01;;;;;;;34.28;15.02;;;;;;;-0.45;93.19;95722.06;5053928;28;20036;-80
2020/12/08 07:50:29;;;;;;;36.10;16.40;;;;;;;-0.48;93.35;95712.28;5053792;28;20029;-80
2020/12/08 07:52:55;;;;;;;36.50;16.65;;;;;;;-0.43;93.43;95719.28;5044675;28;20054;-80
2020/12/08 07:55:21;;;;;;;38.70;17.42;;;;;;;-0.41;93.33;95717.34;5061839;28;20471;-79
2020/12/08 07:57:48;;;;;;;34.70;17.13;;;;;;;-0.46;93.80;95710.28;5038806;28;20560;-80
2020/12/08 08:00:14;;;;;;;34.60;16.00;;;;;;;-0.47;92.88;95706.16;5042844;28;20020;-80
2020/12/08 08:02:40;;;;;;;35.60;15.75;;;;;;;-0.45;92.84;95711.84;5042968;28;20041;-80
2020/12/08 08:05:06;;;;;;;34.63;15.60;;;;;;;-0.41;93.20;95722.44;5035549;28;20541;-80
2020/12/08 08:07:32;;;;;;;35.53;16.02;;;;;;;-0.40;93.08;95724.00;5027128;28;20485;-80
2020/12/08 08:09:58;;;;;;;34.58;16.15;;;;;;;-0.34;93.28;95732.59;5024402;28;20036;-79
2020/12/08 08:12:25;;;;;;;32.65;15.82;;;;;;;-0.30;92.90;95733.75;5033847;28;20189;-80
2020/12/08 08:14:51;;;;;;;29.95;14.15;;;;;;;-0.30;92.77;95746.53;5016106;28;20100;-80
2020/12/08 08:17:16;;;;;;;34.17;15.75;;;;;;;-0.33;92.46;95734.94;5031143;28;20108;-81
2020/12/08 08:19:42;;;;;;;35.40;15.23;;;;;;;-0.28;92.77;95747.09;5016668;28;20029;-80
2020/12/08 08:22:11;;;;;;;32.85;14.38;;;;;;;-0.23;92.95;95747.25;5026492;28;20044;-80
2020/12/08 08:24:37;;;;;;;32.38;14.48;;;;;;;-0.21;92.69;95748.63;5019932;28;20030;-80
2020/12/08 08:27:02;;;;;;;27.60;13.27;;;;;;;-0.21;92.94;95747.81;5029645;28;20038;-80
2020/12/08 08:29:28;;;;;;;29.15;13.75;;;;;;;-0.17;92.59;95754.09;5036589;28;20036;-80
2020/12/08 08:31:54;;;;;;;31.80;15.30;;;;;;;-0.12;92.44;95751.69;5051515;28;20060;-80
2020/12/08 08:34:20;;;;;;;27.25;12.27;;;;;;;-0.10;91.98;95748.91;5052109;28;20594;-80
2020/12/08 08:36:53;;;;;;;31.27;15.13;;;;;;;-0.10;91.49;95746.38;5038246;28;20028;-79
2020/12/08 08:39:19;;;;;;;34.28;15.77;;;;;;;-0.10;92.01;95754.03;5054341;28;20575;-80
2020/12/08 08:41:48;;;;;;;32.45;15.00;;;;;;;-0.13;91.52;95750.13;5035877;28;20032;-80
2020/12/08 08:44:14;;;;;;;34.22;16.02;;;;;;;-0.07;92.43;95753.59;5038530;28;20048;-80
2020/12/08 08:46:40;;;;;;;31.77;15.27;;;;;;;-0.04;92.26;95743.72;5021101;28;20555;-80
2020/12/08 08:49:08;;;;;;;34.08;16.05;;;;;;;0.00;92.12;95754.34;5029690;28;20029;-80
2020/12/08 08:51:34;;;;;;;31.63;15.30;;;;;;;0.01;92.27;95750.75;5031812;28;20031;-80
2020/12/08 08:54:01;;;;;;;31.45;14.13;;;;;;;0.03;91.48;95748.78;5030978;28;20262;-80
2020/12/08 08:56:27;;;;;;;30.63;15.20;;;;;;;-0.01;91.17;95756.09;5027729;28;20061;-80
2020/12/08 08:58:53;;;;;;;29.75;14.75;;;;;;;0.01;91.30;95748.19;5032827;28;20036;-80
2020/12/08 09:01:19;;;;;;;31.48;15.63;;;;;;;0.05;91.75;95751.88;5015010;28;20356;-80
2020/12/08 09:03:46;;;;;;;32.03;15.68;;;;;;;0.07;92.09;95754.25;5013915;28;20100;-80
2020/12/08 09:06:12;;;;;;;33.35;15.60;;;;;;;0.14;92.21;95760.88;4998573;28;20270;-80
2020/12/08 09:08:38;;;;;;;33.17;15.18;;;;;;;0.24;92.10;95755.25;5050993;28;20040;-81
2020/12/08 09:11:05;;;;;;;32.03;14.35;;;;;;;0.34;91.97;95754.75;5020785;28;20063;-80
2020/12/08 09:13:31;;;;;;;31.02;15.13;;;;;;;0.32;91.54;95752.41;5014038;28;20628;-80
2020/12/08 09:15:58;;;;;;;30.85;14.50;;;;;;;0.49;91.42;95772.31;5034435;28;20029;-80
2020/12/08 09:18:26;;;;;;;29.98;13.80;;;;;;;0.54;91.03;95765.53;5029749;28;20065;-80
2020/12/08 09:20:52;;;;;;;31.83;14.98;;;;;;;0.53;90.99;95756.31;5030057;28;20094;-80
2020/12/08 09:23:20;;;;;;;28.45;14.25;;;;;;;0.57;90.41;95769.47;5013992;28;20376;-80
2020/12/08 09:25:45;;;;;;;29.25;14.68;;;;;;;0.59;90.37;95776.94;5014251;28;20148;-80
2020/12/08 09:28:11;;;;;;;35.40;15.77;;;;;;;0.62;90.37;95773.91;5015416;28;20051;-80
2020/12/08 09:30:37;;;;;;;27.98;14.25;;;;;;;0.58;90.60;95765.13;5032630;28;20040;-79
2020/12/08 09:33:03;;;;;;;33.20;15.70;;;;;;;0.66;90.41;95767.38;5035813;28;20037;-80
2020/12/08 09:35:29;;;;;;;30.80;16.00;;;;;;;0.73;90.76;95771.41;5030369;28;20563;-79
2020/12/08 09:37:57;;;;;;;29.10;15.00;;;;;;;0.74;89.73;95759.41;5047613;28;20104;-80
2020/12/08 09:40:23;;;;;;;30.38;15.02;;;;;;;0.76;89.70;95747.16;5029366;28;20040;-79
2020/12/08 09:42:49;;;;;;;30.73;15.55;;;;;;;0.72;89.53;95751.13;5029747;28;20057;-79
2020/12/08 09:45:15;;;;;;;27.33;14.25;;;;;;;0.72;89.32;95761.38;5029205;28;20159;-79
2020/12/08 09:47:41;;;;;;;30.00;14.60;;;;;;;0.77;89.76;95769.19;5027761;28;20376;-79
2020/12/08 09:50:09;;;;;;;25.75;14.32;;;;;;;0.78;89.60;95757.97;4997566;28;20465;-79
2020/12/08 09:52:38;;;;;;;26.27;14.05;;;;;;;0.81;88.72;95767.78;5031219;28;20156;-79
2020/12/08 09:55:04;;;;;;;25.15;13.20;;;;;;;0.82;89.22;95753.97;5013969;28;20551;-80
2020/12/08 09:57:31;;;;;;;29.05;14.25;;;;;;;0.84;88.57;95758.88;5030916;28;20498;-79
2020/12/08 09:59:56;;;;;;;26.42;13.48;;;;;;;0.80;89.02;95755.97;5030980;28;20025;-79
2020/12/08 10:02:25;;;;;;;26.63;13.30;;;;;;;0.76;89.25;95764.31;5070467;28;20094;-78
2020/12/08 10:04:51;;;;;;;26.25;13.20;;;;;;;0.64;88.49;95765.03;5068354;28;20043;-79
2020/12/08 10:07:19;;;;;;;26.17;14.05;;;;;;;0.65;89.24;95761.50;5050157;28;20045;-79
2020/12/08 10:09:46;;;;;;;28.70;14.63;;;;;;;0.73;89.11;95773.97;5052736;28;20082;-79
2020/12/08 10:12:12;;;;;;;29.67;15.20;;;;;;;0.80;89.79;95766.22;5053689;28;20412;-80
2020/12/08 10:14:40;;;;;;;29.67;14.65;;;;;;;0.95;89.59;95759.94;5052862;28;20032;-79
2020/12/08 10:17:07;;;;;;;29.02;14.48;;;;;;;0.96;88.78;95764.03;5039968;28;20025;-79
2020/12/08 10:19:33;;;;;;;30.08;14.40;;;;;;;1.02;90.02;95768.31;5034037;28;20498;-79
2020/12/08 10:21:59;;;;;;;29.15;15.35;;;;;;;1.10;88.49;95765.44;5033263;28;20472;-79
2020/12/08 10:24:26;;;;;;;28.02;14.05;;;;;;;1.19;89.02;95769.25;5047709;28;20051;-79
2020/12/08 10:26:52;;;;;;;28.67;14.45;;;;;;;1.15;88.66;95765.56;5048302;28;20293;-79
2020/12/08 10:29:18;;;;;;;26.73;13.80;;;;;;;1.21;87.73;95769.03;5033890;28;20476;-80
2020/12/08 10:31:46;;;;;;;24.90;13.20;;;;;;;1.16;87.55;95761.22;5047048;28;20106;-79
2020/12/08 10:34:12;;;;;;;25.95;13.30;;;;;;;1.12;86.88;95761.63;5047109;28;20070;-79
2020/12/08 10:36:38;;;;;;;24.58;12.13;;;;;;;1.01;87.78;95754.72;5023642;28;20025;-78
2020/12/08 10:39:04;;;;;;;28.60;14.63;;;;;;;0.98;87.34;95767.97;5045516;28;20113;-78
2020/12/08 10:41:30;;;;;;;26.63;13.63;;;;;;;0.98;87.86;95760.28;5033950;28;20041;-79
2020/12/08 10:43:59;;;;;;;26.80;13.55;;;;;;;0.93;87.72;95765.25;5014274;28;20029;-80
2020/12/08 10:46:24;;;;;;;29.83;15.02;;;;;;;0.98;88.26;95779.97;5032001;28;20033;-79
2020/12/08 10:48:51;;;;;;;29.05;13.77;;;;;;;0.94;86.99;95779.63;5033630;28;20033;-79
2020/12/08 10:51:21;;;;;;;28.35;13.82;;;;;;;0.95;87.26;95793.25;5049913;28;20037;-79
2020/12/08 10:53:47;;;;;;;27.60;14.70;;;;;;;0.96;87.77;95782.78;5033627;28;20477;-80
2020/12/08 10:56:20;;;;;;;24.80;13.18;;;;;;;0.97;86.97;95776.63;5041676;28;20041;-79
2020/12/08 10:58:48;;;;;;;26.88;13.02;;;;;;;1.02;87.68;95778.56;5032188;28;20519;-80
2020/12/08 11:01:24;;;;;;;27.75;13.45;;;;;;;1.07;87.84;95783.81;5039415;28;20036;-80
2020/12/08 11:03:50;;;;;;;26.25;13.05;;;;;;;1.02;86.71;95781.13;5032186;28;20469;-79
2020/12/08 11:06:25;;;;;;;28.10;13.50;;;;;;;1.03;87.02;95780.09;5028306;28;20558;-80
2020/12/08 11:08:52;;;;;;;25.08;13.20;;;;;;;0.97;86.97;95775.84;5045281;28;20280;-79
2020/12/08 11:11:26;;;;;;;26.13;13.55;;;;;;;0.91;87.09;95778.28;5048525;28;20340;-79
2020/12/08 11:13:54;;;;;;;30.08;15.05;;;;;;;0.88;87.58;95776.16;5032625;28;20081;-80
2020/12/08 11:16:20;;;;;;;25.27;12.98;;;;;;;0.89;88.02;95771.81;5032437;28;20071;-79
2020/12/08 11:18:47;;;;;;;28.25;14.45;;;;;;;0.89;88.08;95777.72;5037634;28;20033;-79
2020/12/08 11:21:14;;;;;;;27.77;13.35;;;;;;;0.99;87.87;95777.19;5030980;28;20083;-80